Time;durP1;ratioP1;P1;durP2;ratioP2;P2;SDS_P1;SDS_P2;PMS_P1;PMS_P2;Temp;Humidity;BMP_temperature;BMP_pressure;BME280_temperature;BME280_humidity;BME280_pressure;Samples;Min_cycle;Max_cycle;Signal;HPM_P1;HPM_P2
2023/11/03 16:22:56;;;;;;;0.33;0.00;;;2.20;99.90;;;;;;25529885;22;1484852;-51
2023/11/03 16:32:58;;;;;;;0.20;0.00;;;1.80;99.90;;;;;;25629246;23;20009;-52
2023/11/03 16:43:03;;;;;;;1.23;0.40;;;1.70;99.90;;;;;;25628954;23;20001;-51
2023/11/03 16:53:05;;;;;;;0.13;0.00;;;1.30;99.90;;;;;;25627538;23;20001;-52
2023/11/03 17:03:07;;;;;;;0.00;0.00;;;1.00;99.90;;;;;;25626770;23;20015;-52
2023/11/03 17:13:09;;;;;;;0.10;0.00;;;1.10;99.90;;;;;;25626195;23;20005;-48
2023/11/03 17:23:12;;;;;;;0.08;0.00;;;1.50;99.90;;;;;;25641708;23;20016;-51
2023/11/03 17:33:14;;;;;;;0.52;0.00;;;1.50;99.90;;;;;;25598324;23;20507;-50
2023/11/03 17:43:17;;;;;;;0.10;0.00;;;1.40;99.90;;;;;;25597896;23;20005;-51
2023/11/03 17:53:19;;;;;;;0.00;0.00;;;1.40;99.90;;;;;;25597402;23;20028;-51
2023/11/03 18:03:21;;;;;;;0.10;0.00;;;1.50;99.90;;;;;;25596944;23;20385;-48
2023/11/03 18:13:23;;;;;;;0.08;0.00;;;1.60;99.90;;;;;;25596681;23;20013;-48
2023/11/03 18:23:25;;;;;;;0.30;0.00;;;1.50;99.90;;;;;;25611023;23;20016;-50
2023/11/03 18:33:27;;;;;;;0.17;0.00;;;1.60;99.90;;;;;;25595580;23;20081;-61
2023/11/03 18:43:29;;;;;;;0.10;0.00;;;1.60;99.90;;;;;;25595121;23;20012;-48
2023/11/03 18:53:33;;;;;;;0.20;0.00;;;1.60;99.90;;;;;;25593255;23;20499;-50
2023/11/03 19:03:35;;;;;;;0.00;0.00;;;1.60;99.90;;;;;;25592677;23;20013;-50
2023/11/03 19:13:38;;;;;;;0.00;0.00;;;1.50;99.90;;;;;;25593837;23;20440;-49
2023/11/03 19:23:40;;;;;;;0.08;0.00;;;1.60;99.90;;;;;;25635352;23;20020;-51
2023/11/03 19:33:42;;;;;;;0.20;0.00;;;1.70;99.90;;;;;;25593487;23;20013;-52
2023/11/03 19:43:44;;;;;;;0.00;0.00;;;1.90;99.90;;;;;;25591502;23;20005;-52
2023/11/03 19:53:46;;;;;;;0.00;0.00;;;1.90;99.90;;;;;;25593006;23;20012;-49
2023/11/03 20:03:48;;;;;;;0.20;0.10;;;2.00;99.90;;;;;;25589418;23;20036;-52
2023/11/03 20:13:50;;;;;;;0.00;0.00;;;1.80;99.90;;;;;;25592315;23;20087;-51
2023/11/03 20:23:51;;;;;;;0.10;0.00;;;1.70;99.90;;;;;;25590953;23;20009;-50
2023/11/03 20:33:55;;;;;;;0.00;0.00;;;1.60;99.90;;;;;;25592009;23;20152;-51
2023/11/03 20:43:57;;;;;;;0.00;0.00;;;1.70;99.90;;;;;;25591478;23;20005;-51
2023/11/03 20:53:59;;;;;;;0.65;0.00;;;1.80;99.90;;;;;;25595162;23;20009;-50
2023/11/03 21:04:03;;;;;;;0.00;0.00;;;1.80;99.90;;;;;;25599369;23;20005;-51
2023/11/03 21:14:04;;;;;;;0.00;0.00;;;2.00;99.90;;;;;;25598811;23;20013;-52
2023/11/03 21:24:10;;;;;;;0.00;0.00;;;1.90;99.90;;;;;;25598724;23;20009;-49
2023/11/03 21:34:15;;;;;;;0.00;0.00;;;1.80;99.90;;;;;;25638100;23;20001;-52
2023/11/03 21:44:17;;;;;;;0.00;0.00;;;1.60;99.90;;;;;;25597242;23;20079;-50
2023/11/03 21:54:19;;;;;;;0.10;0.00;;;1.60;99.90;;;;;;25597819;23;20013;-51
2023/11/03 22:04:21;;;;;;;1.75;0.00;;;1.60;99.90;;;;;;25596400;23;20001;-50
2023/11/03 22:14:26;;;;;;;0.43;0.10;;;1.70;99.90;;;;;;25596365;23;20009;-50
2023/11/03 22:24:28;;;;;;;0.08;0.00;;;1.70;99.90;;;;;;25596259;23;20150;-51
2023/11/03 22:34:30;;;;;;;0.05;0.00;;;1.80;99.90;;;;;;25596005;23;20004;-49
2023/11/03 22:44:31;;;;;;;1.60;0.00;;;1.60;99.90;;;;;;25594131;23;20005;-50
2023/11/03 22:54:34;;;;;;;0.10;0.00;;;1.50;99.90;;;;;;25595223;23;20380;-51
2023/11/03 23:04:36;;;;;;;0.45;0.00;;;1.50;99.90;;;;;;25594832;23;20005;-52
2023/11/03 23:14:38;;;;;;;0.00;0.00;;;1.40;99.90;;;;;;25592546;23;20013;-51
2023/11/03 23:24:40;;;;;;;0.45;0.00;;;1.30;99.90;;;;;;25592645;23;20016;-49
2023/11/03 23:34:41;;;;;;;0.10;0.00;;;1.20;99.90;;;;;;25593813;23;20005;-52
2023/11/03 23:44:43;;;;;;;0.08;0.00;;;1.40;99.90;;;;;;25594929;23;20013;-52
2023/11/03 23:54:45;;;;;;;0.13;0.00;;;1.60;99.90;;;;;;25593068;23;20498;-51
